sensor_id;sensor_type;location;lat;lon;timestamp;pressure;altitude;pressure_sealevel;temperature;humidity
11806;BME280;5960;42.602;23.482;2022-07-10T00:01:59;93354.34;;;17.65;79.86
11806;BME280;5960;42.602;23.482;2022-07-10T00:04:26;93359.47;;;17.67;79.17
11806;BME280;5960;42.602;23.482;2022-07-10T00:06:53;93350.06;;;17.64;79.60
11806;BME280;5960;42.602;23.482;2022-07-10T00:09:21;93345.88;;;17.68;79.32
11806;BME280;5960;42.602;23.482;2022-07-10T00:11:48;93343.47;;;17.67;79.34
11806;BME280;5960;42.602;23.482;2022-07-10T00:14:15;93339.31;;;17.59;79.68
11806;BME280;5960;42.602;23.482;2022-07-10T00:16:42;93345.00;;;17.51;80.03
11806;BME280;5960;42.602;23.482;2022-07-10T00:19:10;93337.94;;;17.56;79.89
11806;BME280;5960;42.602;23.482;2022-07-10T00:21:37;93341.16;;;17.58;80.01
11806;BME280;5960;42.602;23.482;2022-07-10T00:24:04;93323.91;;;17.61;79.96
11806;BME280;5960;42.602;23.482;2022-07-10T00:26:31;93326.13;;;17.52;80.22
11806;BME280;5960;42.602;23.482;2022-07-10T00:28:58;93328.09;;;17.57;79.87
11806;BME280;5960;42.602;23.482;2022-07-10T00:31:24;93324.38;;;17.58;80.03
11806;BME280;5960;42.602;23.482;2022-07-10T00:33:51;93322.06;;;17.50;79.95
11806;BME280;5960;42.602;23.482;2022-07-10T00:36:20;93320.94;;;17.45;80.16
11806;BME280;5960;42.602;23.482;2022-07-10T00:38:46;93320.59;;;17.42;80.28
11806;BME280;5960;42.602;23.482;2022-07-10T00:41:13;93318.50;;;17.44;80.20
11806;BME280;5960;42.602;23.482;2022-07-10T00:43:54;93325.34;;;17.40;80.46
11806;BME280;5960;42.602;23.482;2022-07-10T00:46:21;93315.50;;;17.28;81.01
11806;BME280;5960;42.602;23.482;2022-07-10T00:48:48;93307.53;;;17.28;81.11
11806;BME280;5960;42.602;23.482;2022-07-10T00:51:16;93313.41;;;17.30;81.15
11806;BME280;5960;42.602;23.482;2022-07-10T00:53:46;93307.06;;;17.32;80.60
11806;BME280;5960;42.602;23.482;2022-07-10T00:56:14;93310.19;;;17.28;80.65
11806;BME280;5960;42.602;23.482;2022-07-10T00:58:42;93309.13;;;17.29;80.83
11806;BME280;5960;42.602;23.482;2022-07-10T01:01:11;93302.91;;;17.24;80.65
11806;BME280;5960;42.602;23.482;2022-07-10T01:03:38;93291.56;;;17.17;80.88
11806;BME280;5960;42.602;23.482;2022-07-10T01:06:05;93302.00;;;17.06;81.54
11806;BME280;5960;42.602;23.482;2022-07-10T01:08:32;93304.22;;;17.09;81.56
11806;BME280;5960;42.602;23.482;2022-07-10T01:11:01;93299.94;;;17.08;81.61
11806;BME280;5960;42.602;23.482;2022-07-10T01:13:28;93302.72;;;17.02;81.75
11806;BME280;5960;42.602;23.482;2022-07-10T01:15:55;93295.75;;;17.12;81.42
11806;BME280;5960;42.602;23.482;2022-07-10T01:18:22;93297.13;;;17.15;81.30
11806;BME280;5960;42.602;23.482;2022-07-10T01:20:52;93298.44;;;17.01;81.81
11806;BME280;5960;42.602;23.482;2022-07-10T01:23:19;93300.25;;;17.00;82.00
11806;BME280;5960;42.602;23.482;2022-07-10T01:25:45;93295.28;;;16.92;82.40
11806;BME280;5960;42.602;23.482;2022-07-10T01:28:12;93293.19;;;16.94;81.91
11806;BME280;5960;42.602;23.482;2022-07-10T01:30:39;93294.78;;;16.95;82.35
11806;BME280;5960;42.602;23.482;2022-07-10T01:33:06;93287.22;;;16.98;81.57
11806;BME280;5960;42.602;23.482;2022-07-10T01:35:33;93280.91;;;16.93;82.27
11806;BME280;5960;42.602;23.482;2022-07-10T01:38:01;93279.06;;;16.93;81.89
11806;BME280;5960;42.602;23.482;2022-07-10T01:40:28;93276.53;;;16.87;81.71
11806;BME280;5960;42.602;23.482;2022-07-10T01:42:54;93269.81;;;16.84;82.29
11806;BME280;5960;42.602;23.482;2022-07-10T01:45:21;93281.63;;;16.88;82.08
11806;BME280;5960;42.602;23.482;2022-07-10T01:47:48;93277.13;;;16.89;82.21
11806;BME280;5960;42.602;23.482;2022-07-10T01:50:14;93277.91;;;16.89;81.72
11806;BME280;5960;42.602;23.482;2022-07-10T01:52:41;93277.34;;;16.87;81.65
11806;BME280;5960;42.602;23.482;2022-07-10T01:55:10;93273.88;;;16.87;82.11
11806;BME280;5960;42.602;23.482;2022-07-10T01:57:36;93274.09;;;16.85;82.00
11806;BME280;5960;42.602;23.482;2022-07-10T02:00:04;93276.53;;;16.75;82.27
11806;BME280;5960;42.602;23.482;2022-07-10T02:02:31;93269.34;;;16.75;82.21
11806;BME280;5960;42.602;23.482;2022-07-10T02:04:58;93276.41;;;16.69;82.36
11806;BME280;5960;42.602;23.482;2022-07-10T02:07:24;93278.63;;;16.61;82.92
11806;BME280;5960;42.602;23.482;2022-07-10T02:09:51;93273.63;;;16.52;83.29
11806;BME280;5960;42.602;23.482;2022-07-10T02:12:20;93274.69;;;16.63;82.92
11806;BME280;5960;42.602;23.482;2022-07-10T02:14:47;93275.97;;;16.61;82.99
11806;BME280;5960;42.602;23.482;2022-07-10T02:17:14;93273.63;;;16.64;82.80
11806;BME280;5960;42.602;23.482;2022-07-10T02:19:41;93270.41;;;16.74;82.25
11806;BME280;5960;42.602;23.482;2022-07-10T02:22:08;93273.44;;;16.78;82.15
11806;BME280;5960;42.602;23.482;2022-07-10T02:24:34;93270.75;;;16.78;82.15
11806;BME280;5960;42.602;23.482;2022-07-10T02:27:02;93271.81;;;16.77;81.80
11806;BME280;5960;42.602;23.482;2022-07-10T02:29:30;93265.19;;;16.79;81.83
11806;BME280;5960;42.602;23.482;2022-07-10T02:31:56;93266.13;;;16.73;81.83
11806;BME280;5960;42.602;23.482;2022-07-10T02:34:23;93270.19;;;16.76;81.88
11806;BME280;5960;42.602;23.482;2022-07-10T02:36:51;93267.41;;;16.70;82.23
11806;BME280;5960;42.602;23.482;2022-07-10T02:39:17;93271.56;;;16.78;81.99
11806;BME280;5960;42.602;23.482;2022-07-10T02:41:44;93270.75;;;16.78;81.98
11806;BME280;5960;42.602;23.482;2022-07-10T02:44:11;93274.78;;;16.80;81.91
11806;BME280;5960;42.602;23.482;2022-07-10T02:46:39;93276.88;;;16.78;81.83
11806;BME280;5960;42.602;23.482;2022-07-10T02:49:06;93275.72;;;16.86;81.84
11806;BME280;5960;42.602;23.482;2022-07-10T02:51:33;93284.66;;;16.92;81.59
11806;BME280;5960;42.602;23.482;2022-07-10T02:54:00;93280.69;;;16.94;81.46
11806;BME280;5960;42.602;23.482;2022-07-10T02:56:27;93279.06;;;16.93;81.34
11806;BME280;5960;42.602;23.482;2022-07-10T02:58:54;93287.75;;;16.89;81.46
11806;BME280;5960;42.602;23.482;2022-07-10T03:01:21;93281.28;;;16.84;81.54
11806;BME280;5960;42.602;23.482;2022-07-10T03:03:49;93282.53;;;16.82;81.63
11806;BME280;5960;42.602;23.482;2022-07-10T03:06:16;93285.31;;;16.87;81.80
11806;BME280;5960;42.602;23.482;2022-07-10T03:08:43;93283.94;;;16.84;81.48
11806;BME280;5960;42.602;23.482;2022-07-10T03:11:09;93289.25;;;16.84;81.87
11806;BME280;5960;42.602;23.482;2022-07-10T03:13:36;93294.13;;;16.64;82.35
11806;BME280;5960;42.602;23.482;2022-07-10T03:16:03;93290.75;;;16.68;82.61
11806;BME280;5960;42.602;23.482;2022-07-10T03:18:30;93289.03;;;16.74;82.42
11806;BME280;5960;42.602;23.482;2022-07-10T03:20:58;93283.03;;;16.79;82.04
11806;BME280;5960;42.602;23.482;2022-07-10T03:23:25;93283.81;;;16.79;82.31
11806;BME280;5960;42.602;23.482;2022-07-10T03:25:52;93288.94;;;16.81;81.78
11806;BME280;5960;42.602;23.482;2022-07-10T03:28:19;93290.44;;;16.77;82.17
11806;BME280;5960;42.602;23.482;2022-07-10T03:30:45;93291.34;;;16.82;82.13
11806;BME280;5960;42.602;23.482;2022-07-10T03:33:12;93296.78;;;16.76;82.24
11806;BME280;5960;42.602;23.482;2022-07-10T03:35:39;93293.41;;;16.80;82.06
11806;BME280;5960;42.602;23.482;2022-07-10T03:38:07;93287.31;;;16.92;81.74
11806;BME280;5960;42.602;23.482;2022-07-10T03:40:34;93286.72;;;16.90;80.90
11806;BME280;5960;42.602;23.482;2022-07-10T03:43:00;93282.31;;;16.83;81.06
11806;BME280;5960;42.602;23.482;2022-07-10T03:45:27;93286.03;;;16.94;81.29
11806;BME280;5960;42.602;23.482;2022-07-10T03:47:54;93284.06;;;16.90;81.03
11806;BME280;5960;42.602;23.482;2022-07-10T03:50:21;93285.34;;;16.99;80.60
11806;BME280;5960;42.602;23.482;2022-07-10T03:52:48;93286.03;;;17.06;80.22
11806;BME280;5960;42.602;23.482;2022-07-10T03:55:16;93282.44;;;17.12;79.97
11806;BME280;5960;42.602;23.482;2022-07-10T03:57:43;93279.66;;;17.07;79.61
11806;BME280;5960;42.602;23.482;2022-07-10T04:00:23;93287.66;;;17.07;80.11
11806;BME280;5960;42.602;23.482;2022-07-10T04:02:54;93278.25;;;17.17;79.98
11806;BME280;5960;42.602;23.482;2022-07-10T04:05:23;93278.75;;;17.13;79.96
11806;BME280;5960;42.602;23.482;2022-07-10T04:07:49;93280.84;;;17.11;79.90
11806;BME280;5960;42.602;23.482;2022-07-10T04:10:18;93277.91;;;17.25;79.46
11806;BME280;5960;42.602;23.482;2022-07-10T04:12:45;93276.13;;;17.42;78.79
11806;BME280;5960;42.602;23.482;2022-07-10T04:15:13;93275.69;;;17.34;78.70
11806;BME280;5960;42.602;23.482;2022-07-10T04:17:39;93277.66;;;17.38;78.77
11806;BME280;5960;42.602;23.482;2022-07-10T04:20:07;93271.22;;;17.51;78.51
11806;BME280;5960;42.602;23.482;2022-07-10T04:22:34;93274.72;;;17.52;78.09
11806;BME280;5960;42.602;23.482;2022-07-10T04:25:00;93275.97;;;17.61;77.92
11806;BME280;5960;42.602;23.482;2022-07-10T04:27:29;93267.94;;;17.73;77.41
11806;BME280;5960;42.602;23.482;2022-07-10T04:29:56;93270.19;;;17.81;76.96
11806;BME280;5960;42.602;23.482;2022-07-10T04:32:23;93264.44;;;17.72;76.74
11806;BME280;5960;42.602;23.482;2022-07-10T04:34:49;93268.44;;;17.58;77.03
11806;BME280;5960;42.602;23.482;2022-07-10T04:37:16;93266.50;;;17.41;77.80
11806;BME280;5960;42.602;23.482;2022-07-10T04:39:43;93267.34;;;17.42;78.05
11806;BME280;5960;42.602;23.482;2022-07-10T04:42:10;93263.53;;;17.38;77.93
11806;BME280;5960;42.602;23.482;2022-07-10T04:44:38;93265.28;;;17.32;78.43
11806;BME280;5960;42.602;23.482;2022-07-10T04:47:05;93271.84;;;17.41;78.62
11806;BME280;5960;42.602;23.482;2022-07-10T04:49:33;93270.56;;;17.44;77.86
11806;BME280;5960;42.602;23.482;2022-07-10T04:52:00;93269.97;;;17.54;77.68
11806;BME280;5960;42.602;23.482;2022-07-10T04:54:27;93268.44;;;17.58;77.67
11806;BME280;5960;42.602;23.482;2022-07-10T04:56:54;93266.94;;;17.50;77.47
11806;BME280;5960;42.602;23.482;2022-07-10T04:59:20;93263.28;;;17.39;78.00
11806;BME280;5960;42.602;23.482;2022-07-10T05:01:48;93276.19;;;17.59;77.94
11806;BME280;5960;42.602;23.482;2022-07-10T05:04:15;93256.78;;;17.76;77.17
11806;BME280;5960;42.602;23.482;2022-07-10T05:06:42;93264.03;;;17.93;76.43
11806;BME280;5960;42.602;23.482;2022-07-10T05:09:08;93264.72;;;18.17;76.23
11806;BME280;5960;42.602;23.482;2022-07-10T05:11:35;93259.81;;;18.43;74.96
11806;BME280;5960;42.602;23.482;2022-07-10T05:14:02;93266.91;;;18.54;73.80
11806;BME280;5960;42.602;23.482;2022-07-10T05:16:29;93271.63;;;18.64;73.56
11806;BME280;5960;42.602;23.482;2022-07-10T05:18:57;93268.13;;;18.80;72.99
11806;BME280;5960;42.602;23.482;2022-07-10T05:21:23;93261.06;;;19.08;72.18
11806;BME280;5960;42.602;23.482;2022-07-10T05:23:50;93265.66;;;19.35;71.63
11806;BME280;5960;42.602;23.482;2022-07-10T05:26:17;93262.09;;;19.47;70.46
11806;BME280;5960;42.602;23.482;2022-07-10T05:28:44;93262.34;;;19.45;70.07
11806;BME280;5960;42.602;23.482;2022-07-10T05:31:11;93261.63;;;19.77;69.79
11806;BME280;5960;42.602;23.482;2022-07-10T05:33:38;93261.97;;;20.08;69.43
11806;BME280;5960;42.602;23.482;2022-07-10T05:36:07;93263.34;;;20.43;67.92
11806;BME280;5960;42.602;23.482;2022-07-10T05:38:34;93255.81;;;20.40;66.39
11806;BME280;5960;42.602;23.482;2022-07-10T05:41:01;93261.88;;;19.53;68.33
11806;BME280;5960;42.602;23.482;2022-07-10T05:43:27;93264.44;;;19.65;68.78
11806;BME280;5960;42.602;23.482;2022-07-10T05:45:55;93265.41;;;19.81;68.11
11806;BME280;5960;42.602;23.482;2022-07-10T05:48:22;93263.97;;;19.96;68.03
11806;BME280;5960;42.602;23.482;2022-07-10T05:50:48;93268.50;;;20.23;67.77
11806;BME280;5960;42.602;23.482;2022-07-10T05:53:16;93276.66;;;20.38;67.05
11806;BME280;5960;42.602;23.482;2022-07-10T05:55:45;93267.59;;;20.72;65.67
11806;BME280;5960;42.602;23.482;2022-07-10T05:58:12;93278.44;;;20.87;64.53
11806;BME280;5960;42.602;23.482;2022-07-10T06:00:39;93277.28;;;20.78;64.37
11806;BME280;5960;42.602;23.482;2022-07-10T06:03:08;93275.25;;;20.58;64.99
11806;BME280;5960;42.602;23.482;2022-07-10T06:05:35;93269.97;;;20.36;65.05
11806;BME280;5960;42.602;23.482;2022-07-10T06:08:02;93277.19;;;20.08;66.03
11806;BME280;5960;42.602;23.482;2022-07-10T06:10:30;93278.75;;;19.54;68.00
11806;BME280;5960;42.602;23.482;2022-07-10T06:12:57;93276.31;;;19.52;68.46
11806;BME280;5960;42.602;23.482;2022-07-10T06:15:24;93281.16;;;19.55;68.30
11806;BME280;5960;42.602;23.482;2022-07-10T06:17:50;93273.88;;;19.73;68.68
11806;BME280;5960;42.602;23.482;2022-07-10T06:20:17;93272.19;;;20.17;68.14
11806;BME280;5960;42.602;23.482;2022-07-10T06:22:44;93279.00;;;20.62;65.63
11806;BME280;5960;42.602;23.482;2022-07-10T06:25:11;93273.00;;;20.77;64.33
11806;BME280;5960;42.602;23.482;2022-07-10T06:27:39;93274.22;;;21.02;64.08
11806;BME280;5960;42.602;23.482;2022-07-10T06:30:07;93282.66;;;21.21;63.55
11806;BME280;5960;42.602;23.482;2022-07-10T06:32:33;93270.13;;;21.32;63.04
11806;BME280;5960;42.602;23.482;2022-07-10T06:35:00;93268.75;;;21.24;63.47
11806;BME280;5960;42.602;23.482;2022-07-10T06:37:27;93270.59;;;21.18;62.54
11806;BME280;5960;42.602;23.482;2022-07-10T06:39:54;93270.13;;;20.89;62.78
11806;BME280;5960;42.602;23.482;2022-07-10T06:42:20;93269.91;;;20.58;63.59
11806;BME280;5960;42.602;23.482;2022-07-10T06:44:48;93263.16;;;20.55;63.31
11806;BME280;5960;42.602;23.482;2022-07-10T06:47:17;93262.03;;;20.46;64.25
11806;BME280;5960;42.602;23.482;2022-07-10T06:50:02;93265.94;;;20.66;63.56
11806;BME280;5960;42.602;23.482;2022-07-10T06:52:31;93266.03;;;20.76;63.37
11806;BME280;5960;42.602;23.482;2022-07-10T06:54:57;93263.28;;;21.03;62.78
11806;BME280;5960;42.602;23.482;2022-07-10T06:57:24;93256.44;;;21.28;61.88
11806;BME280;5960;42.602;23.482;2022-07-10T06:59:52;93258.66;;;21.47;61.52
11806;BME280;5960;42.602;23.482;2022-07-10T07:02:19;93264.16;;;21.78;60.26
11806;BME280;5960;42.602;23.482;2022-07-10T07:04:46;93254.06;;;22.16;58.85
11806;BME280;5960;42.602;23.482;2022-07-10T07:07:13;93246.28;;;22.25;58.14
11806;BME280;5960;42.602;23.482;2022-07-10T07:09:40;93243.91;;;22.49;58.92
11806;BME280;5960;42.602;23.482;2022-07-10T07:12:08;93255.19;;;22.72;58.17
11806;BME280;5960;42.602;23.482;2022-07-10T07:14:35;93251.41;;;22.78;57.72
11806;BME280;5960;42.602;23.482;2022-07-10T07:17:04;93250.34;;;22.79;58.05
11806;BME280;5960;42.602;23.482;2022-07-10T07:19:34;93257.31;;;22.70;57.69
11806;BME280;5960;42.602;23.482;2022-07-10T07:22:15;93247.69;;;22.64;57.76
11806;BME280;5960;42.602;23.482;2022-07-10T07:24:59;93247.69;;;22.64;58.03
11806;BME280;5960;42.602;23.482;2022-07-10T07:27:26;93256.28;;;22.66;57.57
11806;BME280;5960;42.602;23.482;2022-07-10T07:29:52;93254.66;;;22.54;57.32
11806;BME280;5960;42.602;23.482;2022-07-10T07:32:21;93252.50;;;22.57;58.21
11806;BME280;5960;42.602;23.482;2022-07-10T07:34:47;93255.19;;;22.57;58.51
11806;BME280;5960;42.602;23.482;2022-07-10T07:37:14;93251.97;;;22.86;57.06
11806;BME280;5960;42.602;23.482;2022-07-10T07:39:41;93254.34;;;22.97;56.85
11806;BME280;5960;42.602;23.482;2022-07-10T07:42:07;93258.13;;;22.81;56.67
11806;BME280;5960;42.602;23.482;2022-07-10T07:44:34;93253.28;;;22.83;56.81
11806;BME280;5960;42.602;23.482;2022-07-10T07:47:01;93251.38;;;23.04;56.75
11806;BME280;5960;42.602;23.482;2022-07-10T07:49:29;93254.28;;;23.34;55.92
11806;BME280;5960;42.602;23.482;2022-07-10T07:51:56;93256.59;;;23.66;56.37
11806;BME280;5960;42.602;23.482;2022-07-10T07:54:22;93252.16;;;23.96;53.86
11806;BME280;5960;42.602;23.482;2022-07-10T07:56:49;93256.03;;;24.25;53.95
11806;BME280;5960;42.602;23.482;2022-07-10T07:59:16;93257.94;;;24.24;54.04
11806;BME280;5960;42.602;23.482;2022-07-10T08:01:43;93256.34;;;24.23;53.04
11806;BME280;5960;42.602;23.482;2022-07-10T08:04:10;93256.03;;;24.25;52.88
11806;BME280;5960;42.602;23.482;2022-07-10T08:06:38;93258.50;;;24.21;52.52
11806;BME280;5960;42.602;23.482;2022-07-10T08:09:05;93252.44;;;24.40;52.09
11806;BME280;5960;42.602;23.482;2022-07-10T08:11:31;93258.44;;;24.66;50.85
11806;BME280;5960;42.602;23.482;2022-07-10T08:13:58;93249.00;;;24.69;50.58
11806;BME280;5960;42.602;23.482;2022-07-10T08:16:25;93256.19;;;24.44;51.26
11806;BME280;5960;42.602;23.482;2022-07-10T08:18:52;93249.31;;;24.62;51.04
11806;BME280;5960;42.602;23.482;2022-07-10T08:21:18;93250.44;;;24.90;51.25
11806;BME280;5960;42.602;23.482;2022-07-10T08:23:47;93252.50;;;24.99;49.17
11806;BME280;5960;42.602;23.482;2022-07-10T08:26:13;93253.44;;;25.18;48.85
11806;BME280;5960;42.602;23.482;2022-07-10T08:28:40;93244.88;;;25.35;47.83
11806;BME280;5960;42.602;23.482;2022-07-10T08:31:07;93243.97;;;25.45;47.83
11806;BME280;5960;42.602;23.482;2022-07-10T08:33:33;93244.53;;;25.66;49.95
11806;BME280;5960;42.602;23.482;2022-07-10T08:36:00;93243.41;;;25.92;48.71
11806;BME280;5960;42.602;23.482;2022-07-10T08:38:27;93246.22;;;26.25;45.84
11806;BME280;5960;42.602;23.482;2022-07-10T08:40:56;93244.31;;;26.64;45.98
11806;BME280;5960;42.602;23.482;2022-07-10T08:43:23;93241.59;;;26.64;43.92
11806;BME280;5960;42.602;23.482;2022-07-10T08:45:51;93239.81;;;26.73;45.14
11806;BME280;5960;42.602;23.482;2022-07-10T08:48:23;93253.34;;;27.06;44.93
11806;BME280;5960;42.602;23.482;2022-07-10T08:50:53;93247.63;;;27.08;43.96
11806;BME280;5960;42.602;23.482;2022-07-10T08:53:24;93248.31;;;26.66;44.88
11806;BME280;5960;42.602;23.482;2022-07-10T08:55:56;93247.50;;;26.13;45.99
11806;BME280;5960;42.602;23.482;2022-07-10T08:58:23;93248.97;;;26.01;46.28
11806;BME280;5960;42.602;23.482;2022-07-10T09:00:50;93255.53;;;25.94;47.18
11806;BME280;5960;42.602;23.482;2022-07-10T09:03:16;93250.81;;;26.05;45.47
11806;BME280;5960;42.602;23.482;2022-07-10T09:05:43;93243.19;;;26.12;44.76
11806;BME280;5960;42.602;23.482;2022-07-10T09:08:21;93245.22;;;26.21;44.06
11806;BME280;5960;42.602;23.482;2022-07-10T09:10:48;93238.63;;;26.46;43.49
11806;BME280;5960;42.602;23.482;2022-07-10T09:13:17;93237.72;;;26.70;44.44
11806;BME280;5960;42.602;23.482;2022-07-10T09:15:48;93234.81;;;26.99;42.76
11806;BME280;5960;42.602;23.482;2022-07-10T09:18:19;93227.41;;;27.05;43.56
11806;BME280;5960;42.602;23.482;2022-07-10T09:20:46;93231.72;;;27.06;42.74
11806;BME280;5960;42.602;23.482;2022-07-10T09:23:16;93222.06;;;26.86;42.33
11806;BME280;5960;42.602;23.482;2022-07-10T09:25:44;93228.72;;;26.74;44.24
11806;BME280;5960;42.602;23.482;2022-07-10T09:28:11;93231.06;;;26.81;43.79
11806;BME280;5960;42.602;23.482;2022-07-10T09:30:40;93230.66;;;26.55;44.20
11806;BME280;5960;42.602;23.482;2022-07-10T09:33:17;93237.56;;;26.28;44.69
11806;BME280;5960;42.602;23.482;2022-07-10T09:36:01;93228.03;;;26.11;44.36
11806;BME280;5960;42.602;23.482;2022-07-10T09:38:51;93234.25;;;26.12;45.12
11806;BME280;5960;42.602;23.482;2022-07-10T09:41:20;93229.44;;;26.47;44.51
11806;BME280;5960;42.602;23.482;2022-07-10T09:43:48;93226.41;;;27.01;45.82
11806;BME280;5960;42.602;23.482;2022-07-10T09:46:18;93224.66;;;27.52;42.90
11806;BME280;5960;42.602;23.482;2022-07-10T09:48:45;93218.63;;;27.13;43.20
11806;BME280;5960;42.602;23.482;2022-07-10T09:51:12;93226.72;;;26.99;41.65
11806;BME280;5960;42.602;23.482;2022-07-10T09:53:41;93217.38;;;26.92;43.57
11806;BME280;5960;42.602;23.482;2022-07-10T09:56:09;93220.97;;;27.48;42.97
11806;BME280;5960;42.602;23.482;2022-07-10T09:58:37;93213.22;;;27.83;42.11
11806;BME280;5960;42.602;23.482;2022-07-10T10:01:05;93216.78;;;28.20;40.71
11806;BME280;5960;42.602;23.482;2022-07-10T10:03:34;93211.16;;;28.76;41.23
11806;BME280;5960;42.602;23.482;2022-07-10T10:06:03;93217.47;;;29.26;39.88
11806;BME280;5960;42.602;23.482;2022-07-10T10:08:37;93220.78;;;29.14;37.53
11806;BME280;5960;42.602;23.482;2022-07-10T10:11:13;93216.03;;;29.28;37.49
11806;BME280;5960;42.602;23.482;2022-07-10T10:13:41;93217.94;;;29.19;38.33
11806;BME280;5960;42.602;23.482;2022-07-10T10:16:09;93206.91;;;29.47;36.73
11806;BME280;5960;42.602;23.482;2022-07-10T10:18:37;93195.25;;;28.61;38.95
11806;BME280;5960;42.602;23.482;2022-07-10T10:21:26;93203.38;;;28.61;39.09
11806;BME280;5960;42.602;23.482;2022-07-10T10:23:53;93204.97;;;28.62;39.54
11806;BME280;5960;42.602;23.482;2022-07-10T10:26:21;93200.13;;;29.04;40.59
11806;BME280;5960;42.602;23.482;2022-07-10T10:28:48;93196.41;;;29.72;38.63
11806;BME280;5960;42.602;23.482;2022-07-10T10:31:15;93198.81;;;29.73;37.20
11806;BME280;5960;42.602;23.482;2022-07-10T10:33:45;93195.44;;;29.59;37.45
11806;BME280;5960;42.602;23.482;2022-07-10T10:36:15;93195.63;;;29.80;37.20
11806;BME280;5960;42.602;23.482;2022-07-10T10:39:04;93185.47;;;30.30;37.90
11806;BME280;5960;42.602;23.482;2022-07-10T10:41:39;93187.50;;;30.86;35.88
11806;BME280;5960;42.602;23.482;2022-07-10T10:44:20;93187.41;;;30.56;35.54
11806;BME280;5960;42.602;23.482;2022-07-10T10:46:58;93194.28;;;30.18;35.87
11806;BME280;5960;42.602;23.482;2022-07-10T10:49:54;93193.34;;;29.56;37.18
11806;BME280;5960;42.602;23.482;2022-07-10T10:52:25;93185.13;;;28.75;37.38
11806;BME280;5960;42.602;23.482;2022-07-10T10:55:03;93182.19;;;28.17;38.71
11806;BME280;5960;42.602;23.482;2022-07-10T10:57:46;93179.63;;;27.84;39.49
11806;BME280;5960;42.602;23.482;2022-07-10T11:00:37;93178.56;;;27.57;41.43
11806;BME280;5960;42.602;23.482;2022-07-10T11:03:17;93175.03;;;27.29;42.25
11806;BME280;5960;42.602;23.482;2022-07-10T11:05:47;93182.59;;;26.85;43.57
11806;BME280;5960;42.602;23.482;2022-07-10T11:08:35;93178.84;;;26.67;43.66
11806;BME280;5960;42.602;23.482;2022-07-10T11:11:37;93183.53;;;26.28;43.98
11806;BME280;5960;42.602;23.482;2022-07-10T11:14:05;93184.13;;;26.25;45.40
11806;BME280;5960;42.602;23.482;2022-07-10T11:16:33;93181.88;;;26.13;45.71
11806;BME280;5960;42.602;23.482;2022-07-10T11:19:00;93186.38;;;25.98;45.57
11806;BME280;5960;42.602;23.482;2022-07-10T11:21:42;93178.72;;;25.87;44.73
11806;BME280;5960;42.602;23.482;2022-07-10T11:24:23;93180.75;;;25.95;44.83
11806;BME280;5960;42.602;23.482;2022-07-10T11:27:05;93175.00;;;26.21;46.43
11806;BME280;5960;42.602;23.482;2022-07-10T11:29:36;93170.94;;;26.37;45.78
11806;BME280;5960;42.602;23.482;2022-07-10T11:32:05;93170.59;;;26.44;44.89
11806;BME280;5960;42.602;23.482;2022-07-10T11:34:36;93166.16;;;26.34;46.54
11806;BME280;5960;42.602;23.482;2022-07-10T11:37:13;93171.13;;;26.27;45.80
11806;BME280;5960;42.602;23.482;2022-07-10T11:39:40;93174.84;;;26.31;46.86
11806;BME280;5960;42.602;23.482;2022-07-10T11:42:07;93173.38;;;26.39;45.54
11806;BME280;5960;42.602;23.482;2022-07-10T11:44:34;93172.91;;;26.51;44.42
11806;BME280;5960;42.602;23.482;2022-07-10T11:47:01;93168.63;;;26.64;44.82
11806;BME280;5960;42.602;23.482;2022-07-10T11:49:29;93167.50;;;26.84;44.21
11806;BME280;5960;42.602;23.482;2022-07-10T11:52:01;93172.75;;;27.08;43.83
11806;BME280;5960;42.602;23.482;2022-07-10T11:54:30;93166.94;;;27.15;43.44
11806;BME280;5960;42.602;23.482;2022-07-10T11:57:04;93173.44;;;27.14;43.92
11806;BME280;5960;42.602;23.482;2022-07-10T11:59:31;93172.03;;;26.88;44.28
11806;BME280;5960;42.602;23.482;2022-07-10T12:01:58;93174.75;;;26.69;44.54
11806;BME280;5960;42.602;23.482;2022-07-10T12:04:28;93181.69;;;26.42;43.29
11806;BME280;5960;42.602;23.482;2022-07-10T12:06:55;93181.34;;;26.30;44.21
11806;BME280;5960;42.602;23.482;2022-07-10T12:09:22;93188.22;;;26.22;45.51
11806;BME280;5960;42.602;23.482;2022-07-10T12:11:59;93181.72;;;26.04;43.95
11806;BME280;5960;42.602;23.482;2022-07-10T12:14:26;93182.28;;;26.01;44.39
11806;BME280;5960;42.602;23.482;2022-07-10T12:16:54;93177.41;;;26.03;43.70
11806;BME280;5960;42.602;23.482;2022-07-10T12:19:23;93183.69;;;26.18;43.37
11806;BME280;5960;42.602;23.482;2022-07-10T12:21:51;93180.53;;;26.29;43.12
11806;BME280;5960;42.602;23.482;2022-07-10T12:24:18;93176.78;;;26.44;44.09
11806;BME280;5960;42.602;23.482;2022-07-10T12:26:46;93172.31;;;26.54;43.69
11806;BME280;5960;42.602;23.482;2022-07-10T12:29:20;93173.41;;;26.53;43.56
11806;BME280;5960;42.602;23.482;2022-07-10T12:31:48;93176.53;;;26.60;43.49
11806;BME280;5960;42.602;23.482;2022-07-10T12:34:16;93174.03;;;26.64;42.74
11806;BME280;5960;42.602;23.482;2022-07-10T12:36:45;93165.22;;;26.72;42.46
11806;BME280;5960;42.602;23.482;2022-07-10T12:39:13;93164.19;;;26.87;43.12
11806;BME280;5960;42.602;23.482;2022-07-10T12:42:00;93165.22;;;27.05;42.72
11806;BME280;5960;42.602;23.482;2022-07-10T12:44:34;93161.81;;;26.99;40.21
11806;BME280;5960;42.602;23.482;2022-07-10T12:47:01;93170.06;;;26.75;42.62
11806;BME280;5960;42.602;23.482;2022-07-10T12:49:28;93161.44;;;26.73;42.25
11806;BME280;5960;42.602;23.482;2022-07-10T12:51:55;93170.06;;;26.75;42.33
11806;BME280;5960;42.602;23.482;2022-07-10T12:54:35;93164.03;;;26.64;42.15
11806;BME280;5960;42.602;23.482;2022-07-10T12:57:03;93170.63;;;26.58;42.65
11806;BME280;5960;42.602;23.482;2022-07-10T12:59:34;93169.03;;;26.57;44.05
11806;BME280;5960;42.602;23.482;2022-07-10T13:02:15;93168.28;;;26.51;43.80
11806;BME280;5960;42.602;23.482;2022-07-10T13:04:51;93174.72;;;26.55;43.15
11806;BME280;5960;42.602;23.482;2022-07-10T13:07:18;93167.72;;;26.54;42.93
11806;BME280;5960;42.602;23.482;2022-07-10T13:09:47;93165.81;;;26.55;43.38